Time;durP1;ratioP1;P1;durP2;ratioP2;P2;SDS_P1;SDS_P2;PMS_P1;PMS_P2;Temp;Humidity;BMP_temperature;BMP_pressure;BME280_temperature;BME280_humidity;BME280_pressure;Samples;Min_cycle;Max_cycle;Signal;HPM_P1;HPM_P2
2022/07/04 00:01:06;;;;;;;;;;;;;;;19.92;58.30;96652.41;5094421;28;19960;-73
2022/07/04 00:03:32;;;;;;;;;;;;;;;19.92;58.31;96653.19;5093288;28;20382;-73
2022/07/04 00:05:58;;;;;;;;;;;;;;;19.95;58.13;96654.53;5093911;28;19983;-73
2022/07/04 00:08:24;;;;;;;;;;;;;;;19.95;57.98;96647.34;5093993;28;19995;-73
2022/07/04 00:10:50;;;;;;;;;;;;;;;19.98;58.43;96654.78;5094229;28;19984;-73
2022/07/04 00:13:15;;;;;;;;;;;;;;;20.01;58.69;96658.75;5093645;28;20343;-73
2022/07/04 00:15:41;;;;;;;;;;;;;;;20.03;58.69;96649.44;5093962;28;20031;-73
2022/07/04 00:18:07;;;;;;;;;;;;;;;20.03;58.85;96644.13;5093916;28;19960;-73
2022/07/04 00:20:33;;;;;;;;;;;;;;;20.03;58.16;96630.81;5093793;28;19963;-73
2022/07/04 00:22:59;;;;;;;;;;;;;;;20.04;57.04;96627.06;5093795;28;19959;-73
2022/07/04 00:25:25;;;;;;;;;;;;;;;20.04;58.31;96637.72;5093860;28;19971;-73
2022/07/04 00:27:51;;;;;;;;;;;;;;;20.03;58.55;96646.78;5093591;28;19955;-73
2022/07/04 00:30:17;;;;;;;;;;;;;;;20.02;58.06;96639.84;5093735;28;19956;-72
2022/07/04 00:32:43;;;;;;;;;;;;;;;20.01;57.60;96642.78;5093936;28;19988;-72
2022/07/04 00:35:09;;;;;;;;;;;;;;;20.02;58.08;96649.72;5093607;28;20056;-73
2022/07/04 00:37:35;;;;;;;;;;;;;;;20.01;57.69;96648.09;5093890;28;19958;-73
2022/07/04 00:40:01;;;;;;;;;;;;;;;20.02;58.72;96663.81;5093736;28;19958;-72
2022/07/04 00:42:26;;;;;;;;;;;;;;;20.02;58.42;96647.06;5096016;28;20017;-73
2022/07/04 00:44:58;;;;;;;;;;;;;;;20.01;57.75;96638.28;5098067;28;19994;-73
2022/07/04 00:47:24;;;;;;;;;;;;;;;20.01;58.52;96645.44;5097829;28;19984;-72
2022/07/04 00:49:50;;;;;;;;;;;;;;;20.00;58.35;96643.88;5097776;28;20362;-73
2022/07/04 00:52:16;;;;;;;;;;;;;;;19.98;57.94;96638.00;5097899;28;20006;-74
2022/07/04 00:54:42;;;;;;;;;;;;;;;19.95;58.64;96649.19;5097932;28;19960;-73
2022/07/04 00:57:08;;;;;;;;;;;;;;;19.92;58.60;96655.88;5097065;28;20398;-73
2022/07/04 00:59:34;;;;;;;;;;;;;;;19.91;58.42;96650.81;5097548;28;19974;-73
2022/07/04 01:02:00;;;;;;;;;;;;;;;19.88;58.46;96649.50;5097295;28;20377;-73
2022/07/04 01:04:26;;;;;;;;;;;;;;;19.84;58.83;96654.59;5097962;28;19997;-73
2022/07/04 01:06:52;;;;;;;;;;;;;;;19.82;58.93;96658.56;5097440;28;19963;-73
2022/07/04 01:09:18;;;;;;;;;;;;;;;19.79;58.83;96654.59;5097374;28;19972;-73
2022/07/04 01:11:44;;;;;;;;;;;;;;;19.76;58.23;96649.00;5097266;28;19972;-73
2022/07/04 01:14:10;;;;;;;;;;;;;;;19.72;58.41;96650.59;5096976;28;19991;-73
2022/07/04 01:16:36;;;;;;;;;;;;;;;19.66;57.82;96645.28;5097000;28;20024;-73
2022/07/04 01:19:02;;;;;;;;;;;;;;;19.63;60.08;96655.66;5097247;28;19993;-73
2022/07/04 01:21:28;;;;;;;;;;;;;;;19.60;59.37;96649.03;5097000;28;19964;-73
2022/07/04 01:23:54;;;;;;;;;;;;;;;19.61;59.46;96660.47;5096942;28;19952;-73
2022/07/04 01:26:20;;;;;;;;;;;;;;;19.57;59.32;96660.22;5095801;28;20426;-74
2022/07/04 01:28:46;;;;;;;;;;;;;;;19.54;59.71;96663.41;5097069;28;19957;-73
2022/07/04 01:31:12;;;;;;;;;;;;;;;19.53;59.41;96664.50;5097063;28;19969;-73
2022/07/04 01:33:38;;;;;;;;;;;;;;;19.52;59.59;96673.53;5097091;28;19954;-73
2022/07/04 01:36:04;;;;;;;;;;;;;;;19.52;59.46;96672.72;5097478;28;19953;-73
2022/07/04 01:38:30;;;;;;;;;;;;;;;19.48;59.18;96662.63;5096710;28;19960;-73
2022/07/04 01:40:56;;;;;;;;;;;;;;;19.50;59.76;96669.53;5096739;28;19956;-73
2022/07/04 01:43:22;;;;;;;;;;;;;;;19.52;59.65;96668.19;5096409;28;19963;-73
2022/07/04 01:45:48;;;;;;;;;;;;;;;19.54;59.48;96667.94;5096817;28;20016;-73
2022/07/04 01:48:14;;;;;;;;;;;;;;;19.54;59.65;96668.72;5095354;28;20054;-74
2022/07/04 01:50:40;;;;;;;;;;;;;;;19.55;59.73;96677.50;5081123;28;19960;-73
2022/07/04 01:53:06;;;;;;;;;;;;;;;19.55;59.67;96688.13;5095641;28;20023;-73
2022/07/04 01:55:32;;;;;;;;;;;;;;;19.56;59.24;96689.75;5096478;28;19957;-73
2022/07/04 01:57:59;;;;;;;;;;;;;;;19.56;59.90;96692.41;5096470;28;19961;-73
2022/07/04 02:03:09;;;;;;;;;;;;;;;19.56;60.07;96695.06;5096738;28;19962;-72
2022/07/04 02:05:37;;;;;;;;;;;;;;;19.55;59.92;96693.47;5096255;28;19973;-73
2022/07/04 02:08:03;;;;;;;;;;;;;;;19.52;59.93;96686.03;5095948;28;19959;-73
2022/07/04 02:10:29;;;;;;;;;;;;;;;19.47;59.46;96684.97;5096313;28;20436;-73
2022/07/04 02:13:01;;;;;;;;;;;;;;;19.42;60.27;96695.63;5096223;28;19965;-73
2022/07/04 02:15:35;;;;;;;;;;;;;;;19.38;60.48;96689.25;5094462;28;20471;-73
2022/07/04 02:18:02;;;;;;;;;;;;;;;19.37;60.26;96697.50;5096025;28;19967;-73
2022/07/04 02:20:28;;;;;;;;;;;;;;;19.35;60.51;96694.31;5096205;28;19961;-73
2022/07/04 02:22:54;;;;;;;;;;;;;;;19.32;60.44;96705.47;5095799;28;19963;-73
2022/07/04 02:25:20;;;;;;;;;;;;;;;19.31;60.35;96703.88;5095427;28;20333;-73
2022/07/04 02:27:46;;;;;;;;;;;;;;;19.30;60.47;96697.78;5095674;28;19971;-73
2022/07/04 02:30:12;;;;;;;;;;;;;;;19.28;60.44;96713.19;5095967;28;20384;-73
2022/07/04 02:32:38;;;;;;;;;;;;;;;19.26;60.90;96724.09;5095848;28;19954;-73
2022/07/04 02:35:05;;;;;;;;;;;;;;;19.23;60.21;96726.47;5095336;28;19957;-72
2022/07/04 02:37:30;;;;;;;;;;;;;;;19.17;60.52;96732.84;5095445;28;19951;-72
2022/07/04 02:39:56;;;;;;;;;;;;;;;19.16;60.52;96742.69;5095450;28;20314;-72
2022/07/04 02:42:22;;;;;;;;;;;;;;;19.17;60.95;96746.97;5095946;28;19961;-72
2022/07/04 02:44:48;;;;;;;;;;;;;;;19.20;61.11;96748.28;5095373;28;20028;-72
2022/07/04 02:47:14;;;;;;;;;;;;;;;19.21;61.36;96749.88;5095671;28;19965;-72
2022/07/04 02:49:40;;;;;;;;;;;;;;;19.19;61.69;96758.13;5095208;28;19967;-72
2022/07/04 02:52:06;;;;;;;;;;;;;;;19.19;61.88;96754.66;5095419;28;19960;-72
2022/07/04 02:54:32;;;;;;;;;;;;;;;19.17;62.40;96754.94;5095156;28;19965;-72
2022/07/04 02:56:58;;;;;;;;;;;;;;;19.15;62.61;96757.06;5095629;28;20000;-72
2022/07/04 02:59:24;;;;;;;;;;;;;;;19.10;62.58;96751.72;5095141;28;19964;-73
2022/07/04 03:01:50;;;;;;;;;;;;;;;19.06;62.69;96750.66;5095176;28;20015;-73
2022/07/04 03:04:15;;;;;;;;;;;;;;;19.02;62.80;96749.59;5094905;28;19962;-72
2022/07/04 03:06:42;;;;;;;;;;;;;;;19.00;62.83;96746.41;5095010;28;20061;-73
2022/07/04 03:09:09;;;;;;;;;;;;;;;18.96;62.52;96742.66;5095147;28;19965;-73
2022/07/04 03:11:35;;;;;;;;;;;;;;;18.92;62.88;96745.06;5094942;28;20029;-73
2022/07/04 03:14:01;;;;;;;;;;;;;;;18.89;62.98;96742.94;5095049;28;19959;-73
2022/07/04 03:16:27;;;;;;;;;;;;;;;18.84;63.19;96743.72;5095048;28;19992;-73
2022/07/04 03:18:52;;;;;;;;;;;;;;;18.81;63.18;96741.56;5094768;28;19969;-73
2022/07/04 03:21:19;;;;;;;;;;;;;;;18.78;63.59;96752.75;5094786;28;20006;-73
2022/07/04 03:23:57;;;;;;;;;;;;;;;18.74;63.74;96750.84;5094690;28;19958;-73
2022/07/04 03:26:24;;;;;;;;;;;;;;;18.70;63.79;96752.44;5094711;28;19983;-73
2022/07/04 03:28:49;;;;;;;;;;;;;;;18.65;64.14;96754.03;5094806;28;19962;-73
2022/07/04 03:31:15;;;;;;;;;;;;;;;18.61;64.14;96758.25;5094598;28;19956;-73
2022/07/04 03:33:41;;;;;;;;;;;;;;;18.57;63.93;96762.50;5094404;28;20002;-73
2022/07/04 03:36:07;;;;;;;;;;;;;;;18.56;64.58;96765.41;5094510;28;20002;-73
2022/07/04 03:38:33;;;;;;;;;;;;;;;18.52;64.41;96765.16;5093389;28;19957;-73
2022/07/04 03:40:59;;;;;;;;;;;;;;;18.51;64.89;96766.19;5094590;28;19954;-73
2022/07/04 03:43:25;;;;;;;;;;;;;;;18.50;64.89;96771.75;5094499;28;19966;-73
2022/07/04 03:45:50;;;;;;;;;;;;;;;18.48;64.90;96763.25;5094400;28;20024;-73
2022/07/04 03:48:16;;;;;;;;;;;;;;;18.46;65.44;96777.59;5093720;28;19972;-73
2022/07/04 03:50:42;;;;;;;;;;;;;;;18.45;65.40;96785.81;5094983;28;20027;-73
2022/07/04 03:53:08;;;;;;;;;;;;;;;18.43;65.83;96783.41;5094443;28;19959;-73
2022/07/04 03:55:34;;;;;;;;;;;;;;;18.41;65.48;96780.22;5094613;28;19961;-73
2022/07/04 03:58:00;;;;;;;;;;;;;;;18.41;65.59;96779.44;5092914;28;20381;-72
2022/07/04 04:00:26;;;;;;;;;;;;;;;18.40;65.54;96789.25;5094180;28;19964;-73
2022/07/04 04:02:52;;;;;;;;;;;;;;;18.38;65.63;96794.03;5094016;28;20013;-73
2022/07/04 04:05:27;;;;;;;;;;;;;;;18.38;65.39;96804.66;5093896;28;20378;-73
2022/07/04 04:07:57;;;;;;;;;;;;;;;18.36;65.85;96804.09;5094034;28;19958;-72
2022/07/04 04:10:24;;;;;;;;;;;;;;;18.37;66.30;96812.88;5094067;28;19957;-73
2022/07/04 04:12:50;;;;;;;;;;;;;;;18.35;66.13;96812.31;5094213;28;19956;-72
2022/07/04 04:15:16;;;;;;;;;;;;;;;18.34;66.19;96810.75;5093732;28;19985;-72
2022/07/04 04:17:42;;;;;;;;;;;;;;;18.32;66.16;96813.66;5093387;28;19965;-72
2022/07/04 04:20:11;;;;;;;;;;;;;;;18.31;65.99;96820.03;5093703;28;20001;-72
2022/07/04 04:22:37;;;;;;;;;;;;;;;18.30;65.80;96817.63;5093796;28;19956;-72
2022/07/04 04:25:03;;;;;;;;;;;;;;;18.28;65.87;96820.53;5093804;28;19999;-72
2022/07/04 04:27:29;;;;;;;;;;;;;;;18.29;65.96;96816.84;5093200;28;20345;-72
2022/07/04 04:29:55;;;;;;;;;;;;;;;18.29;65.70;96824.78;5093538;28;19963;-72
2022/07/04 04:32:21;;;;;;;;;;;;;;;18.28;65.98;96836.47;5093521;28;20471;-72
2022/07/04 04:34:47;;;;;;;;;;;;;;;18.31;66.10;96835.13;5093551;28;19963;-72
2022/07/04 04:37:13;;;;;;;;;;;;;;;18.31;66.32;96835.97;5094147;28;20445;-72
2022/07/04 04:39:39;;;;;;;;;;;;;;;18.33;66.29;96839.16;5093644;28;19960;-72
2022/07/04 04:42:05;;;;;;;;;;;;;;;18.34;66.00;96835.44;5093602;28;19962;-72
2022/07/04 04:44:31;;;;;;;;;;;;;;;18.36;65.83;96843.16;5093609;28;19955;-72
2022/07/04 04:46:57;;;;;;;;;;;;;;;18.39;65.59;96838.09;5093403;28;19991;-72
2022/07/04 04:49:22;;;;;;;;;;;;;;;18.40;65.33;96831.75;5093439;28;20415;-72
2022/07/04 04:51:48;;;;;;;;;;;;;;;18.44;65.86;96838.13;5094227;28;19959;-72
2022/07/04 04:54:14;;;;;;;;;;;;;;;18.45;65.98;96837.06;5093416;28;20047;-72
2022/07/04 04:56:40;;;;;;;;;;;;;;;18.48;65.51;96840.25;5093491;28;20380;-72
2022/07/04 04:59:07;;;;;;;;;;;;;;;18.50;65.92;96844.28;5093424;28;19963;-73
2022/07/04 05:01:34;;;;;;;;;;;;;;;18.49;65.60;96840.00;5093605;28;19955;-72
2022/07/04 05:03:59;;;;;;;;;;;;;;;18.45;65.65;96830.97;5093723;28;19956;-72
2022/07/04 05:06:25;;;;;;;;;;;;;;;18.43;65.32;96831.22;5093681;28;19981;-72
2022/07/04 05:08:51;;;;;;;;;;;;;;;18.41;64.25;96824.56;5093365;28;20376;-72
2022/07/04 05:11:17;;;;;;;;;;;;;;;18.37;64.43;96829.63;5093389;28;20336;-72
2022/07/04 05:13:43;;;;;;;;;;;;;;;18.31;63.98;96827.19;5093061;28;19964;-72
2022/07/04 05:16:09;;;;;;;;;;;;;;;18.28;64.99;96835.66;5093441;28;20021;-72
2022/07/04 05:18:35;;;;;;;;;;;;;;;18.29;65.19;96835.41;5093399;28;19964;-72
2022/07/04 05:21:01;;;;;;;;;;;;;;;18.29;64.80;96830.09;5092791;28;19967;-72
2022/07/04 05:23:27;;;;;;;;;;;;;;;18.31;64.64;96827.19;5093259;28;19954;-72
2022/07/04 05:25:53;;;;;;;;;;;;;;;18.31;64.59;96822.69;5091868;28;20343;-72
2022/07/04 05:28:18;;;;;;;;;;;;;;;18.30;64.04;96818.41;5093636;28;20046;-72
2022/07/04 05:30:44;;;;;;;;;;;;;;;18.26;63.98;96804.06;5097284;28;19974;-74
2022/07/04 05:33:11;;;;;;;;;;;;;;;18.28;65.00;96812.56;5096919;28;20010;-72
2022/07/04 05:35:37;;;;;;;;;;;;;;;18.40;65.33;96812.38;5096953;28;20339;-72
2022/07/04 05:38:03;;;;;;;;;;;;;;;18.56;64.99;96805.25;5095933;28;19957;-72
2022/07/04 05:40:29;;;;;;;;;;;;;;;18.70;64.30;96795.72;5096854;28;19969;-72
2022/07/04 05:42:56;;;;;;;;;;;;;;;18.86;63.87;96797.41;5096575;28;19962;-72
2022/07/04 05:45:22;;;;;;;;;;;;;;;19.05;63.51;96788.94;5097381;28;19975;-72
2022/07/04 05:47:48;;;;;;;;;;;;;;;19.29;62.58;96781.25;5096519;28;20477;-72
2022/07/04 05:50:14;;;;;;;;;;;;;;;19.42;61.89;96774.59;5096744;28;19954;-72
2022/07/04 05:52:40;;;;;;;;;;;;;;;19.45;61.80;96777.53;5096546;28;19965;-73
2022/07/04 05:55:07;;;;;;;;;;;;;;;19.46;61.58;96775.66;5095454;28;19966;-72
2022/07/04 05:57:33;;;;;;;;;;;;;;;19.40;61.50;96777.56;5096344;28;20416;-72
2022/07/04 05:59:59;;;;;;;;;;;;;;;19.34;61.83;96775.13;5096480;28;20058;-72
2022/07/04 06:02:25;;;;;;;;;;;;;;;19.29;61.95;96777.81;5096252;28;20489;-72
2022/07/04 06:04:51;;;;;;;;;;;;;;;19.24;61.97;96787.38;5096504;28;19956;-72
2022/07/04 06:07:17;;;;;;;;;;;;;;;19.25;62.75;96794.28;5096247;28;19978;-72
2022/07/04 06:09:43;;;;;;;;;;;;;;;19.34;62.79;96796.41;5096127;28;19965;-72
2022/07/04 06:12:09;;;;;;;;;;;;;;;19.48;62.08;96794.81;5096353;28;19952;-72
2022/07/04 06:14:35;;;;;;;;;;;;;;;19.64;61.61;96792.97;5095983;28;19961;-72
2022/07/04 06:17:01;;;;;;;;;;;;;;;19.79;61.38;96797.50;5096445;28;20005;-72
2022/07/04 06:19:27;;;;;;;;;;;;;;;19.97;60.91;96790.81;5095993;28;20002;-72
2022/07/04 06:21:53;;;;;;;;;;;;;;;20.14;60.94;96790.50;5096087;28;19959;-72
2022/07/04 06:24:19;;;;;;;;;;;;;;;20.32;60.35;96787.25;5096083;28;19955;-72
2022/07/04 06:26:45;;;;;;;;;;;;;;;20.46;59.78;96782.94;5096104;28;19970;-72
2022/07/04 06:29:11;;;;;;;;;;;;;;;20.58;58.92;96776.50;5095975;28;20019;-72
2022/07/04 06:31:37;;;;;;;;;;;;;;;20.65;58.91;96779.69;5095728;28;19956;-72
2022/07/04 06:36:48;;;;;;;;;;;;;;;20.84;58.53;96775.31;5095791;28;19971;-72
2022/07/04 06:39:14;;;;;;;;;;;;;;;20.92;58.65;96776.63;5095164;28;19954;-73
2022/07/04 06:41:39;;;;;;;;;;;;;;;20.93;58.35;96769.41;5095078;28;19962;-73
2022/07/04 06:44:05;;;;;;;;;;;;;;;20.86;57.52;96764.38;5094997;28;19955;-72
2022/07/04 06:46:31;;;;;;;;;;;;;;;20.77;58.41;96766.03;5095421;28;20379;-73
2022/07/04 06:48:57;;;;;;;;;;;;;;;20.71;59.02;96775.16;5095736;28;19962;-73
2022/07/04 06:51:23;;;;;;;;;;;;;;;20.62;58.72;96764.22;5095518;28;19962;-72
2022/07/04 06:53:50;;;;;;;;;;;;;;;20.56;58.96;96766.13;5095486;28;19950;-72
2022/07/04 06:56:16;;;;;;;;;;;;;;;20.56;60.17;96770.66;5095144;28;20322;-72
2022/07/04 06:58:42;;;;;;;;;;;;;;;20.57;59.84;96764.25;5095544;28;20342;-72
2022/07/04 07:01:08;;;;;;;;;;;;;;;20.59;59.34;96762.91;5095379;28;19961;-72
2022/07/04 07:03:34;;;;;;;;;;;;;;;20.54;59.01;96754.16;5095214;28;19976;-73
2022/07/04 07:06:02;;;;;;;;;;;;;;;20.49;59.34;96760.28;5095334;28;19974;-73
2022/07/04 07:08:28;;;;;;;;;;;;;;;20.49;60.29;96770.94;5095193;28;19955;-72
2022/07/04 07:10:55;;;;;;;;;;;;;;;20.56;59.86;96770.66;5095325;28;19986;-72
2022/07/04 07:13:21;;;;;;;;;;;;;;;20.64;59.93;96762.09;5095103;28;19961;-72
2022/07/04 07:15:47;;;;;;;;;;;;;;;20.74;59.85;96762.03;5094793;28;19987;-72
2022/07/04 07:18:13;;;;;;;;;;;;;;;20.80;59.24;96746.81;5094987;28;19995;-72
2022/07/04 07:20:39;;;;;;;;;;;;;;;20.85;58.98;96744.94;5094769;28;20003;-72
2022/07/04 07:23:05;;;;;;;;;;;;;;;20.84;59.14;96746.00;5094612;28;20009;-72
2022/07/04 07:25:31;;;;;;;;;;;;;;;20.87;59.43;96748.13;5094604;28;19977;-73
2022/07/04 07:27:57;;;;;;;;;;;;;;;20.91;59.66;96751.00;5094811;28;19959;-73
2022/07/04 07:30:23;;;;;;;;;;;;;;;20.95;59.19;96743.25;5094731;28;20318;-73
2022/07/04 07:32:48;;;;;;;;;;;;;;;20.96;58.94;96748.31;5094705;28;19955;-72
2022/07/04 07:35:14;;;;;;;;;;;;;;;20.98;58.64;96740.06;5094759;28;20494;-73
2022/07/04 07:37:41;;;;;;;;;;;;;;;21.01;59.08;96737.63;5094509;28;19957;-72
2022/07/04 07:40:07;;;;;;;;;;;;;;;21.07;59.19;96749.84;5094683;28;19963;-72
2022/07/04 07:42:33;;;;;;;;;;;;;;;21.19;59.15;96748.72;5092945;28;19962;-72
2022/07/04 07:44:59;;;;;;;;;;;;;;;21.34;59.11;96745.91;5094361;28;19967;-72
2022/07/04 07:47:25;;;;;;;;;;;;;;;21.48;58.73;96740.72;5094496;28;19986;-72
2022/07/04 07:49:51;;;;;;;;;;;;;;;21.49;57.07;96726.34;5094184;28;20360;-73
2022/07/04 07:52:17;;;;;;;;;;;;;;;21.50;56.79;96725.25;5093467;28;19967;-73
2022/07/04 07:54:43;;;;;;;;;;;;;;;21.59;57.50;96738.78;5094413;28;20331;-72
2022/07/04 07:57:09;;;;;;;;;;;;;;;21.63;57.29;96724.59;5094190;28;19990;-73
2022/07/04 07:59:35;;;;;;;;;;;;;;;21.66;57.44;96725.91;5094747;28;19993;-72
2022/07/04 08:02:00;;;;;;;;;;;;;;;21.71;57.23;96728.50;5094104;28;19960;-74
2022/07/04 08:04:37;;;;;;;;;;;;;;;21.74;57.53;96729.84;5094073;28;20415;-73
2022/07/04 08:07:07;;;;;;;;;;;;;;;21.73;57.02;96733.56;5094267;28;19983;-73
2022/07/04 08:09:33;;;;;;;;;;;;;;;21.70;57.85;96737.59;5093458;28;19973;-72
2022/07/04 08:12:01;;;;;;;;;;;;;;;21.65;57.08;96730.44;5094143;28;20059;-72
2022/07/04 08:14:27;;;;;;;;;;;;;;;21.61;57.47;96739.31;5094225;28;19962;-73
2022/07/04 08:16:53;;;;;;;;;;;;;;;21.55;56.89;96729.75;5093961;28;19966;-72
2022/07/04 08:19:19;;;;;;;;;;;;;;;21.50;57.17;96730.56;5093822;28;20045;-73
2022/07/04 08:21:46;;;;;;;;;;;;;;;21.46;57.69;96740.22;5093974;28;19965;-72
2022/07/04 08:24:13;;;;;;;;;;;;;;;21.44;57.97;96737.84;5093734;28;19966;-72
2022/07/04 08:26:39;;;;;;;;;;;;;;;21.44;57.36;96729.03;5093928;28;19976;-72
2022/07/04 08:29:08;;;;;;;;;;;;;;;21.45;57.30;96727.97;5093323;28;19959;-72
2022/07/04 08:31:34;;;;;;;;;;;;;;;21.47;58.04;96736.50;5093812;28;19984;-72
2022/07/04 08:33:59;;;;;;;;;;;;;;;21.49;57.58;96726.34;5093797;28;19959;-72
2022/07/04 08:36:25;;;;;;;;;;;;;;;21.50;55.53;96701.22;5094215;28;19965;-72
2022/07/04 08:38:51;;;;;;;;;;;;;;;21.56;57.24;96716.13;5093661;28;20050;-73
2022/07/04 08:41:17;;;;;;;;;;;;;;;21.72;57.20;96711.44;5093756;28;20038;-73
2022/07/04 08:43:45;;;;;;;;;;;;;;;21.84;56.78;96717.19;5093747;28;19957;-73
2022/07/04 08:46:12;;;;;;;;;;;;;;;21.94;56.01;96710.13;5093750;28;19979;-73
2022/07/04 08:48:40;;;;;;;;;;;;;;;21.95;56.33;96712.53;5093408;28;19959;-72
2022/07/04 08:51:16;;;;;;;;;;;;;;;22.04;58.06;96731.38;5094233;28;19969;-72
2022/07/04 08:53:49;;;;;;;;;;;;;;;22.21;55.91;96704.97;5093540;28;19956;-72
2022/07/04 08:58:59;;;;;;;;;;;;;;;22.61;55.19;96702.88;5093459;28;19963;-72
2022/07/04 09:01:26;;;;;;;;;;;;;;;22.74;54.32;96697.91;5093367;28;20417;-73
2022/07/04 09:03:53;;;;;;;;;;;;;;;22.90;55.58;96709.97;5096551;28;20419;-73
2022/07/04 09:06:19;;;;;;;;;;;;;;;23.12;54.49;96689.88;5097467;28;20443;-72
2022/07/04 09:08:45;;;;;;;;;;;;;;;23.27;54.44;96689.63;5097419;28;20354;-72
2022/07/04 09:11:12;;;;;;;;;;;;;;;23.35;54.08;96699.66;5097229;28;20044;-72
2022/07/04 09:13:38;;;;;;;;;;;;;;;23.56;53.95;96705.44;5097542;28;19960;-73
2022/07/04 09:16:04;;;;;;;;;;;;;;;23.66;52.48;96678.47;5097434;28;19988;-73
2022/07/04 09:18:31;;;;;;;;;;;;;;;23.82;51.64;96686.25;5097996;28;19970;-72
2022/07/04 09:20:58;;;;;;;;;;;;;;;23.97;53.11;96698.56;5097085;28;19981;-73
2022/07/04 09:23:28;;;;;;;;;;;;;;;24.08;51.79;96684.66;5097099;28;20352;-73
2022/07/04 09:26:13;;;;;;;;;;;;;;;24.16;50.16;96685.06;5097081;28;20429;-73
2022/07/04 09:28:40;;;;;;;;;;;;;;;24.25;51.47;96704.69;5088743;28;19958;-73
2022/07/04 09:31:16;;;;;;;;;;;;;;;24.33;51.02;96712.03;5097133;28;20389;-73
2022/07/04 09:33:46;;;;;;;;;;;;;;;24.37;50.78;96713.00;5097076;28;19956;-72
2022/07/04 09:36:13;;;;;;;;;;;;;;;24.49;51.36;96724.03;5096928;28;19964;-73
2022/07/04 09:38:38;;;;;;;;;;;;;;;24.47;49.03;96717.38;5096744;28;19960;-72
2022/07/04 09:43:58;;;;;;;;;;;;;;;24.54;49.54;96728.50;5085152;28;19959;-72
2022/07/04 09:46:24;;;;;;;;;;;;;;;24.60;49.66;96731.88;5096990;28;19980;-73
2022/07/04 09:48:51;;;;;;;;;;;;;;;24.65;48.88;96723.72;5096785;28;19962;-73
2022/07/04 09:51:35;;;;;;;;;;;;;;;24.69;48.31;96732.75;5096533;28;19954;-73
2022/07/04 09:54:19;;;;;;;;;;;;;;;24.77;49.27;96744.66;5096706;28;20336;-73
2022/07/04 09:56:46;;;;;;;;;;;;;;;24.84;48.54;96736.97;5088624;28;19968;-73
2022/07/04 09:59:12;;;;;;;;;;;;;;;24.91;48.63;96740.03;5096292;28;19955;-73
2022/07/04 10:01:39;;;;;;;;;;;;;;;25.01;48.29;96733.63;5096326;28;20423;-73
2022/07/04 10:04:06;;;;;;;;;;;;;;;25.15;45.79;96725.53;5096785;28;20331;-73
2022/07/04 10:06:33;;;;;;;;;;;;;;;25.28;47.74;96744.31;5096116;28;19971;-73
2022/07/04 10:09:09;;;;;;;;;;;;;;;25.41;47.94;96744.50;5096111;28;19964;-73
2022/07/04 10:11:36;;;;;;;;;;;;;;;25.42;46.97;96749.59;5096298;28;19956;-73
2022/07/04 10:14:09;;;;;;;;;;;;;;;25.38;46.85;96743.25;5095341;28;19965;-73
2022/07/04 10:16:35;;;;;;;;;;;;;;;25.40;46.18;96734.88;5095913;28;20010;-73
2022/07/04 10:19:01;;;;;;;;;;;;;;;25.30;44.72;96736.75;5096092;28;20327;-73
2022/07/04 10:21:28;;;;;;;;;;;;;;;25.21;46.48;96743.13;5096216;28;19966;-73
2022/07/04 10:23:54;;;;;;;;;;;;;;;25.15;46.78;96755.06;5096126;28;19964;-73
2022/07/04 10:26:20;;;;;;;;;;;;;;;25.22;46.88;96750.06;5096008;28;19961;-73
2022/07/04 10:28:47;;;;;;;;;;;;;;;25.39;47.18;96747.53;5095811;28;19959;-73
2022/07/04 10:31:13;;;;;;;;;;;;;;;25.59;45.75;96740.84;5095799;28;19966;-73
2022/07/04 10:33:40;;;;;;;;;;;;;;;25.73;46.61;96740.75;5095877;28;19969;-73
2022/07/04 10:36:19;;;;;;;;;;;;;;;25.75;44.97;96735.88;5094842;28;19963;-73
2022/07/04 10:38:53;;;;;;;;;;;;;;;25.87;45.92;96741.47;5095611;28;20406;-73
2022/07/04 10:41:23;;;;;;;;;;;;;;;26.03;46.07;96741.06;5095827;28;20424;-73
2022/07/04 10:43:57;;;;;;;;;;;;;;;26.20;45.02;96737.66;5095611;28;19974;-73
2022/07/04 10:46:26;;;;;;;;;;;;;;;26.38;44.71;96741.97;5094933;28;19969;-73
2022/07/04 10:48:54;;;;;;;;;;;;;;;26.56;44.40;96732.03;5095464;28;19958;-73
2022/07/04 10:51:43;;;;;;;;;;;;;;;26.69;43.46;96733.03;5095710;28;19963;-73
2022/07/04 10:54:21;;;;;;;;;;;;;;;26.83;44.97;96744.44;5075663;28;20321;-72
2022/07/04 10:56:49;;;;;;;;;;;;;;;26.67;44.17;96737.97;5094849;28;19973;-73
2022/07/04 10:59:23;;;;;;;;;;;;;;;26.51;43.60;96735.66;5094814;28;19960;-73
2022/07/04 11:01:53;;;;;;;;;;;;;;;26.43;44.93;96747.19;5095001;28;19960;-73
2022/07/04 11:04:37;;;;;;;;;;;;;;;26.42;44.00;96736.78;5095268;28;19961;-73
2022/07/04 11:07:03;;;;;;;;;;;;;;;26.48;44.97;96741.69;5081037;28;19990;-72
2022/07/04 11:09:29;;;;;;;;;;;;;;;26.63;42.67;96723.56;5095167;28;20052;-73
2022/07/04 11:12:06;;;;;;;;;;;;;;;26.62;43.57;96716.56;5095403;28;20016;-73
2022/07/04 11:14:35;;;;;;;;;;;;;;;26.80;42.34;96704.72;5094623;28;19957;-73
2022/07/04 11:17:01;;;;;;;;;;;;;;;26.88;43.35;96703.16;5095671;28;19958;-72
2022/07/04 11:19:27;;;;;;;;;;;;;;;26.71;41.40;96702.03;5094570;28;19965;-73
2022/07/04 11:21:54;;;;;;;;;;;;;;;26.59;42.42;96717.22;5094986;28;19969;-73
2022/07/04 11:24:20;;;;;;;;;;;;;;;26.66;44.67;96717.53;5094987;28;19960;-73
2022/07/04 11:26:46;;;;;;;;;;;;;;;26.74;41.89;96703.28;5094541;28;19967;-72
2022/07/04 11:29:13;;;;;;;;;;;;;;;26.69;43.12;96706.13;5094811;28;19965;-73
2022/07/04 11:31:40;;;;;;;;;;;;;;;26.60;41.13;96695.34;5094641;28;19976;-73
2022/07/04 11:34:06;;;;;;;;;;;;;;;26.57;39.98;96692.53;5095081;28;19959;-73
2022/07/04 11:36:32;;;;;;;;;;;;;;;26.53;41.95;96700.41;5094667;28;19969;-73
2022/07/04 11:38:59;;;;;;;;;;;;;;;26.52;42.98;96713.06;5094737;28;19968;-73
2022/07/04 11:47:20;;;;;;;;;;;;;;;26.78;44.99;96700.78;5085697;28;19976;-73
2022/07/04 11:49:49;;;;;;;;;;;;;;;27.08;44.10;96696.31;5078345;28;20432;-73
2022/07/04 11:52:16;;;;;;;;;;;;;;;26.98;41.54;96683.97;5094213;28;19958;-73
2022/07/04 11:54:43;;;;;;;;;;;;;;;26.80;43.14;96687.78;5094426;28;19963;-73
2022/07/04 11:57:10;;;;;;;;;;;;;;;26.69;43.69;96682.72;5094150;28;19959;-73
2022/07/04 11:59:36;;;;;;;;;;;;;;;26.62;43.35;96682.38;5094025;28;19960;-73
2022/07/04 12:02:12;;;;;;;;;;;;;;;26.55;43.33;96676.66;5094159;28;19976;-73
2022/07/04 12:04:40;;;;;;;;;;;;;;;26.61;44.20;96691.56;5094176;28;19960;-73
2022/07/04 12:07:10;;;;;;;;;;;;;;;26.63;44.42;96688.59;5094368;28;19975;-73
2022/07/04 12:10:14;;;;;;;;;;;;;;;26.42;42.40;96666.84;5077506;28;19966;-73
2022/07/04 12:12:55;;;;;;;;;;;;;;;26.29;42.78;96674.75;5094477;28;19968;-73
2022/07/04 12:15:22;;;;;;;;;;;;;;;26.57;43.20;96673.69;5093534;28;19983;-73
2022/07/04 12:17:52;;;;;;;;;;;;;;;26.87;42.20;96664.66;5093859;28;20344;-73
2022/07/04 12:20:17;;;;;;;;;;;;;;;26.93;42.31;96662.59;5093989;28;20072;-73
2022/07/04 12:22:49;;;;;;;;;;;;;;;27.18;42.33;96650.22;5094049;28;20439;-73
2022/07/04 12:25:24;;;;;;;;;;;;;;;27.53;42.64;96650.16;5093808;28;20327;-73
2022/07/04 12:28:03;;;;;;;;;;;;;;;27.77;41.26;96636.09;5094241;28;19983;-73
2022/07/04 12:30:32;;;;;;;;;;;;;;;27.88;38.94;96621.13;5093863;28;19976;-73
2022/07/04 12:33:02;;;;;;;;;;;;;;;27.83;41.22;96634.78;5093653;28;19961;-73
2022/07/04 12:35:34;;;;;;;;;;;;;;;27.68;38.15;96614.56;5093963;28;19964;-73
2022/07/04 12:38:04;;;;;;;;;;;;;;;27.49;39.36;96625.75;5096910;28;19959;-73
2022/07/04 12:40:31;;;;;;;;;;;;;;;27.31;41.85;96629.59;5101054;28;19965;-73
2022/07/04 12:42:58;;;;;;;;;;;;;;;27.39;42.61;96633.41;5099343;28;19964;-73
2022/07/04 12:45:40;;;;;;;;;;;;;;;27.60;42.78;96634.25;5100274;28;19969;-73
2022/07/04 12:48:13;;;;;;;;;;;;;;;27.67;40.03;96601.41;5100356;28;19978;-73
2022/07/04 12:50:39;;;;;;;;;;;;;;;27.61;41.69;96613.50;5100350;28;19976;-73
2022/07/04 12:53:05;;;;;;;;;;;;;;;27.53;40.62;96598.97;5100317;28;20411;-73
2022/07/04 12:55:31;;;;;;;;;;;;;;;27.17;40.10;96594.75;5099390;28;19966;-73
2022/07/04 12:58:00;;;;;;;;;;;;;;;26.99;42.25;96612.88;5100282;28;19964;-73
2022/07/04 13:00:26;;;;;;;;;;;;;;;26.95;42.92;96608.47;5100212;28;19963;-73
2022/07/04 13:02:52;;;;;;;;;;;;;;;26.91;41.21;96602.91;5100332;28;19966;-73
2022/07/04 13:05:17;;;;;;;;;;;;;;;26.84;41.57;96592.66;5100194;28;19965;-73